createdAt,value
2018-12-17T00:02:02.905Z,51.43
2018-12-17T00:07:08.817Z,50.83
2018-12-17T00:12:16.471Z,55.53
2018-12-17T00:17:19.337Z,42.57
2018-12-17T00:22:23.135Z,52.17
2018-12-17T00:27:27.173Z,44.63
2018-12-17T00:32:31.260Z,41.47
2018-12-17T00:37:35.066Z,67.30
2018-12-17T00:42:39.075Z,61.57
2018-12-17T00:47:43.950Z,58.87
2018-12-17T00:52:47.649Z,69.63
2018-12-17T00:57:51.655Z,67.60
2018-12-17T01:02:55.755Z,67.17
2018-12-17T01:07:59.862Z,62.27
2018-12-17T01:13:03.991Z,69.07
2018-12-17T01:18:08.130Z,69.97
2018-12-17T01:23:12.218Z,61.37
2018-12-17T01:28:21.997Z,62.40
2018-12-17T01:33:22.414Z,61.27
2018-12-17T01:38:26.519Z,63.23
2018-12-17T01:43:30.627Z,52.87
2018-12-17T01:48:34.410Z,71.83
2018-12-17T01:53:38.422Z,72.43
2018-12-17T01:58:42.557Z,69.47
2018-12-17T02:03:46.659Z,54.07
2018-12-17T02:08:50.443Z,61.77
2018-12-17T02:13:54.466Z,59.27
2018-12-17T02:18:58.570Z,62.40
2018-12-17T02:24:02.690Z,55.03
2018-12-17T02:29:06.795Z,53.77
2018-12-17T02:34:10.586Z,56.83
2018-12-17T02:39:14.294Z,57.03
2018-12-17T02:44:18.126Z,54.77
2018-12-17T02:49:22.255Z,52.30
2018-12-17T02:54:26.379Z,53.50
2018-12-17T02:59:30.483Z,48.20
2018-12-17T03:04:34.590Z,52.03
2018-12-17T03:09:38.697Z,59.77
2018-12-17T03:14:42.804Z,59.13
2018-12-17T03:19:47.040Z,61.37
2018-12-17T03:24:51.155Z,50.23
2018-12-17T03:29:55.271Z,55.27
2018-12-17T03:34:59.471Z,63.10
2018-12-17T03:40:04.037Z,57.50
2018-12-17T03:45:08.389Z,60.17
2018-12-17T03:50:13.269Z,67.33
2018-12-17T03:55:17.291Z,52.50
2018-12-17T04:00:21.422Z,50.00
2018-12-17T04:05:25.623Z,55.93
2018-12-17T04:10:29.416Z,57.00
2018-12-17T04:15:33.677Z,55.17
2018-12-17T04:20:37.787Z,56.87
2018-12-17T04:25:41.892Z,73.83
2018-12-17T04:30:45.711Z,66.87
2018-12-17T04:35:49.824Z,71.00
2018-12-17T04:40:53.632Z,79.40
2018-12-17T04:45:57.350Z,76.70
2018-12-17T04:51:01.038Z,72.03
2018-12-17T04:56:04.746Z,69.90
2018-12-17T05:01:08.779Z,63.47
2018-12-17T05:06:12.886Z,59.30
2018-12-17T05:11:17.530Z,39.37
2018-12-17T05:16:21.638Z,66.27
2018-12-17T05:21:25.907Z,65.37
2018-12-17T05:26:29.800Z,60.07
2018-12-17T05:31:33.527Z,25.47
2018-12-17T05:36:37.560Z,71.10
2018-12-17T05:41:41.683Z,52.40
2018-12-17T05:46:45.859Z,47.73
2018-12-17T05:51:49.948Z,58.93
2018-12-17T05:56:54.187Z,54.20
2018-12-17T06:01:58.279Z,54.53
2018-12-17T06:07:02.450Z,60.10
2018-12-17T06:12:06.598Z,59.07
2018-12-17T06:17:10.725Z,62.30
2018-12-17T06:22:14.857Z,57.47
2018-12-17T06:27:18.967Z,56.30
2018-12-17T06:32:24.163Z,62.23
2018-12-17T06:37:28.275Z,66.73
2018-12-17T06:42:32.055Z,53.93
2018-12-17T06:47:36.067Z,54.70
2018-12-17T06:52:39.846Z,53.27
2018-12-17T06:57:43.875Z,59.20
2018-12-17T07:02:48.007Z,60.13
2018-12-17T07:07:52.119Z,57.87
2018-12-17T07:12:56.220Z,55.43
2018-12-17T07:18:00.308Z,55.40
2018-12-17T07:23:04.413Z,52.70
2018-12-17T07:28:08.516Z,61.10
2018-12-17T07:33:12.715Z,51.20
2018-12-17T07:38:16.843Z,50.13
2018-12-17T07:43:20.939Z,54.83
2018-12-17T07:48:25.035Z,68.33
2018-12-17T07:53:29.119Z,57.30
2018-12-17T07:58:32.894Z,65.20
2018-12-17T08:03:37.217Z,61.97
2018-12-17T08:08:40.995Z,63.77
2018-12-17T08:13:45.004Z,59.00
2018-12-17T08:18:49.860Z,60.90
2018-12-17T08:23:54.091Z,68.23
2018-12-17T08:28:58.224Z,60.47
2018-12-17T08:34:02.298Z,66.20
2018-12-17T08:39:07.919Z,61.47
2018-12-17T08:44:13.100Z,62.73
2018-12-17T08:49:16.898Z,62.40
2018-12-17T08:54:20.909Z,67.23
2018-12-17T08:59:25.000Z,64.70
2018-12-17T09:04:28.771Z,75.27
2018-12-17T09:09:32.779Z,78.20
2018-12-17T09:14:36.891Z,66.03
2018-12-17T09:19:41.005Z,75.57
2018-12-17T09:24:45.997Z,72.17
2018-12-17T09:29:50.299Z,73.77
2018-12-17T09:34:54.482Z,73.67
2018-12-17T09:39:58.684Z,70.40
2018-12-17T09:45:02.808Z,68.90
2018-12-17T09:50:06.926Z,78.53
2018-12-17T09:55:12.005Z,77.87
2018-12-17T10:00:16.199Z,73.30
2018-12-17T10:05:20.288Z,83.77
2018-12-17T10:10:24.372Z,77.30
2018-12-17T10:15:28.483Z,80.33
2018-12-17T10:20:32.573Z,72.60
2018-12-17T10:25:36.704Z,84.03
2018-12-17T10:30:40.801Z,84.03
2018-12-17T10:35:44.579Z,83.47
2018-12-17T10:40:48.588Z,81.73
2018-12-17T10:45:52.824Z,79.77
2018-12-17T10:50:57.727Z,72.17
2018-12-17T10:56:01.835Z,76.60
2018-12-17T11:01:11.306Z,94.73
2018-12-17T11:06:17.144Z,82.43
2018-12-17T11:11:21.238Z,80.23
2018-12-17T11:16:25.453Z,86.13
2018-12-17T11:21:29.552Z,86.33
2018-12-17T11:26:33.631Z,92.97
2018-12-17T11:31:37.409Z,87.57
2018-12-17T11:36:41.430Z,84.90
2018-12-17T11:41:45.545Z,84.40
2018-12-17T11:46:49.651Z,112.97
2018-12-17T11:51:53.751Z,87.00
2018-12-17T11:57:12.740Z,83.63
2018-12-17T12:02:16.531Z,94.07
2018-12-17T12:07:20.632Z,91.33
2018-12-17T12:12:24.775Z,97.40
2018-12-17T12:17:28.920Z,122.10
2018-12-17T12:22:33.013Z,114.10
2018-12-17T12:27:36.806Z,128.30
2018-12-17T12:32:40.507Z,151.73
2018-12-17T12:37:44.532Z,143.03
2018-12-17T12:42:51.579Z,138.93
2018-12-17T12:47:54.343Z,126.10
2018-12-17T12:52:58.560Z,115.00
2018-12-17T12:58:03.832Z,111.07
2018-12-17T13:03:09.834Z,120.83
2018-12-17T13:08:14.038Z,137.23
2018-12-17T13:13:18.152Z,133.67
2018-12-17T13:18:21.979Z,121.83
2018-12-17T13:23:25.743Z,131.93
2018-12-17T13:28:29.450Z,136.97
2018-12-17T13:33:33.248Z,119.77
2018-12-17T13:38:37.046Z,127.13
2018-12-17T13:43:41.061Z,133.20
2018-12-17T13:48:45.106Z,129.40
2018-12-17T13:53:49.288Z,123.40
2018-12-17T13:58:53.067Z,133.57
2018-12-17T14:03:56.770Z,134.40
2018-12-17T14:09:00.596Z,132.73
2018-12-17T14:14:05.707Z,137.67
2018-12-17T14:19:14.993Z,122.30
2018-12-17T14:24:19.125Z,142.13
2018-12-17T14:29:22.948Z,110.07
2018-12-17T14:34:26.748Z,90.23
2018-12-17T14:39:30.514Z,95.73
2018-12-17T14:44:35.160Z,90.77
2018-12-17T14:49:39.315Z,75.77
2018-12-17T14:54:44.122Z,92.40
2018-12-17T14:59:48.949Z,98.90
2018-12-17T15:04:53.835Z,97.73
2018-12-17T15:09:57.616Z,100.40
2018-12-17T15:15:02.154Z,107.70
2018-12-17T15:20:07.255Z,97.33
2018-12-17T15:25:12.087Z,92.70
2018-12-17T15:30:15.916Z,99.23
2018-12-17T15:35:19.669Z,102.63
2018-12-17T15:40:23.793Z,93.67
2018-12-17T15:45:27.498Z,88.50
2018-12-17T15:50:32.732Z,93.80
2018-12-17T15:55:38.269Z,106.03
2018-12-17T16:00:42.127Z,95.80
2018-12-17T16:05:46.028Z,86.40
2018-12-17T16:10:49.827Z,70.20
2018-12-17T16:15:53.562Z,71.57
2018-12-17T16:20:58.146Z,81.40
2018-12-17T16:26:02.252Z,69.07
2018-12-17T16:31:07.121Z,80.80
2018-12-17T16:36:12.266Z,76.97
2018-12-17T16:41:16.607Z,79.63
2018-12-17T16:46:20.459Z,77.63
2018-12-17T16:51:25.009Z,81.43
2018-12-17T16:56:30.698Z,64.63
2018-12-17T17:01:34.546Z,84.07
2018-12-17T17:06:39.208Z,69.27
2018-12-17T17:11:43.574Z,78.40
2018-12-17T17:16:47.574Z,89.03
2018-12-17T17:21:51.843Z,72.27
2018-12-17T17:26:56.467Z,76.13
2018-12-17T17:32:02.455Z,74.37
2018-12-17T17:37:07.624Z,69.03
2018-12-17T17:42:12.379Z,74.00
2018-12-17T17:47:18.032Z,73.27
2018-12-17T17:52:23.327Z,68.60
2018-12-17T17:57:27.623Z,69.67
2018-12-17T18:02:31.439Z,74.27
2018-12-17T18:07:36.167Z,67.80
2018-12-17T18:12:39.853Z,81.87
2018-12-17T18:17:43.564Z,82.67
2018-12-17T18:22:47.550Z,76.37
2018-12-17T18:27:51.327Z,73.90
2018-12-17T18:32:55.340Z,74.97
2018-12-17T18:37:59.504Z,72.10
2018-12-17T18:43:03.746Z,71.97
2018-12-17T18:48:08.439Z,67.70
2018-12-17T18:53:12.539Z,71.63
2018-12-17T18:58:16.335Z,69.87
2018-12-17T19:03:20.327Z,80.67
2018-12-17T19:08:24.703Z,75.73
2018-12-17T19:13:29.719Z,79.73
2018-12-17T19:18:33.828Z,75.47
2018-12-17T19:23:37.647Z,77.60
2018-12-17T19:28:43.521Z,74.57
2018-12-17T19:33:47.612Z,74.03
2018-12-17T19:38:51.395Z,75.23
2018-12-17T19:43:55.762Z,75.50
2018-12-17T19:49:00.428Z,74.17
2018-12-17T19:54:04.354Z,93.93
2018-12-17T19:59:08.214Z,96.87
2018-12-17T20:04:12.258Z,79.07
2018-12-17T20:09:16.034Z,82.40
2018-12-17T20:14:20.166Z,80.27
2018-12-17T20:19:24.193Z,97.50
2018-12-17T20:24:28.653Z,88.07
2018-12-17T20:29:33.271Z,85.43
2018-12-17T20:34:37.099Z,78.30
2018-12-17T20:39:40.950Z,65.63
2018-12-17T20:44:45.051Z,76.03
2018-12-17T20:49:48.887Z,99.53
2018-12-17T20:54:52.617Z,99.70
2018-12-17T20:59:56.600Z,85.70
2018-12-17T21:05:00.403Z,79.03
2018-12-17T21:10:04.430Z,77.77
2018-12-17T21:15:08.158Z,115.43
2018-12-17T21:20:13.252Z,84.73
2018-12-17T21:25:18.640Z,82.83
2018-12-17T21:30:22.450Z,86.57
2018-12-17T21:35:27.219Z,83.87
2018-12-17T21:40:32.055Z,86.97
2018-12-17T21:45:36.239Z,79.90
2018-12-17T21:50:40.372Z,71.97
2018-12-17T21:55:46.380Z,68.50
2018-12-17T22:00:51.101Z,67.97
2018-12-17T22:05:59.034Z,63.23
2018-12-17T22:11:03.471Z,68.90
2018-12-17T22:16:09.243Z,61.20
2018-12-17T22:21:14.132Z,71.97
2018-12-17T22:26:19.110Z,83.37
2018-12-17T22:31:23.441Z,90.27
2018-12-17T22:36:29.686Z,84.87
2018-12-17T22:41:33.788Z,73.80
2018-12-17T22:46:38.019Z,69.73
2018-12-17T22:51:42.124Z,64.50
2018-12-17T22:56:46.340Z,74.07
2018-12-17T23:01:50.932Z,62.10
2018-12-17T23:06:55.258Z,62.93
2018-12-17T23:12:11.089Z,56.90
2018-12-17T23:17:26.847Z,64.13
2018-12-17T23:22:33.458Z,71.37
2018-12-17T23:27:46.935Z,73.27
2018-12-17T23:32:52.739Z,72.53
2018-12-17T23:37:57.115Z,62.67
2018-12-17T23:43:01.648Z,68.87
2018-12-17T23:48:05.867Z,64.67
2018-12-17T23:53:10.352Z,70.23
2018-12-17T23:58:15.309Z,65.63
